メインページ
METAR-TAF:

METAR-TAF

空港 :

ヤウンデ, カメルーン

ヤウンデ・ンシマレン国際空港

緯度: 03-50N, 経度: 011-31E, 海抜: 751m

現時点の気象観測

当レポートは36分前の01:00(UTC)に作成
西/南西の風 4kt
気温 22°C
湿度 94%
気圧 1016 hPa
視程: 6000m
高度600ftの雲は散在している

METAR: FKYS 180100Z 25004KT 6000 SCT006 22/21 Q1016 TEMPO 4000 BR

時間: 02:36 (01:36 UTC)

予報

当レポートは2時間36分前の23:00(UTC)に作成
予報は18日の 00時(UTC)から 18日の 24時(UTC)まで有効
変向風 4kt
視程: 4500m
高度600ftの千切れ雲あり
煙霧
18日の 02時(UTC)から 18日の 08時(UTC)まで一時的に
視程: 2000m
18日の 08時(UTC)から 18日の 10時(UTC)まで徐々に
高度2000ftの千切れ雲あり
18日の 20時(UTC)から 18日の 22時(UTC)まで徐々に
高度600ftの千切れ雲あり

TAF: FKYS 172300Z 1800/1824 VRB04KT 4500 HZ BKN006 TEMPO 1802/1808 2000 BR BECMG 1808/1810 BKN020 BECMG 1820/1822 BKN006

4,000以上の空港の気象観測と天気予報(METAR報とTAF報)

利用可能な観測所は地図上に黄色い丸と赤い丸で示す。

丸の上にカーソルを重ねると観測所名を参照できる。

次にクリックすると気象観測と天気予報を参照できる。

マップの切り替え:黒色「×」印の緑ボタンをクリックして拡大、「-」印の緑ボタンをクリックして縮小、緑色の三角印をクリックして隣りの地図に切り替え


METAR-TAF: